createdAt,value
2023-02-05T00:01:23.611Z,99786.70
2023-02-05T00:03:50.315Z,99790.38
2023-02-05T00:06:16.927Z,99791.36
2023-02-05T00:08:44.375Z,99796.71
2023-02-05T00:11:12.737Z,99798.60
2023-02-05T00:13:41.989Z,99804.29
2023-02-05T00:16:14.304Z,99804.13
2023-02-05T00:18:40.971Z,99802.23
2023-02-05T00:21:07.961Z,99801.03
2023-02-05T00:23:34.993Z,99803.45
2023-02-05T00:26:02.956Z,99803.96
2023-02-05T00:28:36.259Z,99802.09
2023-02-05T00:31:08.345Z,99802.15
2023-02-05T00:33:35.302Z,99798.83
2023-02-05T00:36:02.357Z,99798.80
2023-02-05T00:38:29.220Z,99799.75
2023-02-05T00:40:56.271Z,99799.61
2023-02-05T00:43:23.089Z,99798.98
2023-02-05T00:45:49.655Z,99801.98
2023-02-05T00:48:16.429Z,99807.28
2023-02-05T00:50:43.130Z,99806.40
2023-02-05T00:53:10.585Z,99806.95
2023-02-05T00:55:37.337Z,99805.62
2023-02-05T00:58:04.145Z,99802.08
2023-02-05T01:00:32.163Z,99800.77
2023-02-05T01:03:00.543Z,99798.69
2023-02-05T01:05:27.638Z,99798.32
2023-02-05T01:07:54.340Z,99799.08
2023-02-05T01:10:21.145Z,99795.15
2023-02-05T01:12:50.910Z,99795.15
2023-02-05T01:15:18.001Z,99797.09
2023-02-05T01:17:44.597Z,99796.70
2023-02-05T01:20:12.633Z,99792.61
2023-02-05T01:22:39.591Z,99795.41
2023-02-05T01:25:06.753Z,99792.35
2023-02-05T01:27:33.655Z,99792.39
2023-02-05T01:30:00.599Z,99793.14
2023-02-05T01:32:28.168Z,99795.85
2023-02-05T01:34:55.072Z,99798.38
2023-02-05T01:37:22.140Z,99803.31
2023-02-05T01:39:50.558Z,99801.77
2023-02-05T01:42:25.936Z,99807.81
2023-02-05T01:45:21.015Z,99803.46
2023-02-05T01:47:56.281Z,99806.00
2023-02-05T01:50:32.592Z,99806.46
2023-02-05T01:53:03.097Z,99812.44
2023-02-05T01:55:29.723Z,99814.37
2023-02-05T01:57:56.664Z,99813.45
2023-02-05T02:00:23.385Z,99813.17
2023-02-05T02:02:50.228Z,99812.80
2023-02-05T02:05:17.351Z,99806.86
2023-02-05T02:07:44.114Z,99809.63
2023-02-05T02:10:12.957Z,99802.56
2023-02-05T02:12:40.839Z,99805.82
2023-02-05T02:15:10.604Z,99804.48
2023-02-05T02:17:39.458Z,99803.16
2023-02-05T02:20:08.566Z,99805.37
2023-02-05T02:22:54.030Z,99799.98
2023-02-05T02:25:28.463Z,99801.52
2023-02-05T02:27:55.434Z,99801.20
2023-02-05T02:30:33.735Z,99800.81
2023-02-05T02:33:08.864Z,99801.20
2023-02-05T02:35:52.276Z,99799.37
2023-02-05T02:38:29.991Z,99796.50
2023-02-05T02:41:04.613Z,99798.23
2023-02-05T02:43:37.584Z,99798.70
2023-02-05T02:46:09.450Z,99798.74
2023-02-05T02:48:37.637Z,99801.44
2023-02-05T02:51:05.786Z,99801.95
2023-02-05T02:53:38.047Z,99805.44
2023-02-05T02:56:04.978Z,99810.86
2023-02-05T02:58:36.760Z,99809.73
2023-02-05T03:01:04.343Z,99819.22
2023-02-05T03:03:31.886Z,99817.81
2023-02-05T03:05:58.602Z,99817.74
2023-02-05T03:08:33.653Z,99822.67
2023-02-05T03:11:02.665Z,99822.30
2023-02-05T03:13:31.710Z,99827.28
2023-02-05T03:16:00.112Z,99827.24
2023-02-05T03:18:26.958Z,99828.05
2023-02-05T03:20:57.559Z,99825.14
2023-02-05T03:23:25.934Z,99822.45
2023-02-05T03:25:52.828Z,99819.05
2023-02-05T03:28:22.746Z,99819.63
2023-02-05T03:31:17.140Z,99819.00
2023-02-05T03:33:50.764Z,99820.68
2023-02-05T03:36:37.243Z,99824.52
2023-02-05T03:39:08.478Z,99828.94
2023-02-05T03:41:56.479Z,99827.70
2023-02-05T03:45:05.070Z,99826.15
2023-02-05T03:47:37.302Z,99828.26
2023-02-05T03:50:17.485Z,99830.69
2023-02-05T03:52:56.829Z,99827.83
2023-02-05T03:55:27.586Z,99830.33
2023-02-05T03:58:02.033Z,99831.19
2023-02-05T04:00:31.201Z,99834.42
2023-02-05T04:02:58.581Z,99838.14
2023-02-05T04:05:28.982Z,99838.98
2023-02-05T04:07:55.856Z,99838.14
2023-02-05T04:10:26.740Z,99835.19
2023-02-05T04:12:54.140Z,99841.37
2023-02-05T04:15:21.310Z,99843.63
2023-02-05T04:17:51.099Z,99843.05
2023-02-05T04:20:18.364Z,99840.42
2023-02-05T04:22:45.093Z,99841.60
2023-02-05T04:25:14.045Z,99840.14
2023-02-05T04:27:40.819Z,99842.31
2023-02-05T04:30:08.472Z,99840.48
2023-02-05T04:32:37.763Z,99835.07
2023-02-05T04:35:05.072Z,99829.90
2023-02-05T04:37:31.830Z,99826.51
2023-02-05T04:39:59.057Z,99823.67
2023-02-05T04:42:26.203Z,99827.60
2023-02-05T04:44:53.897Z,99829.59
2023-02-05T04:47:20.542Z,99842.11
2023-02-05T04:49:47.395Z,99847.39
2023-02-05T04:52:13.952Z,99843.95
2023-02-05T04:54:40.818Z,99845.66
2023-02-05T04:57:07.700Z,99849.05
2023-02-05T04:59:34.405Z,99848.33
2023-02-05T05:02:01.011Z,99854.39
2023-02-05T05:04:27.849Z,99855.05
2023-02-05T05:06:54.886Z,99857.96
2023-02-05T05:09:23.559Z,99860.65
2023-02-05T05:11:53.143Z,99861.96
2023-02-05T05:14:19.848Z,99860.13
2023-02-05T05:16:48.297Z,99860.30
2023-02-05T05:19:15.266Z,99860.19
2023-02-05T05:21:41.881Z,99860.38
2023-02-05T05:24:08.505Z,99863.80
2023-02-05T05:26:35.510Z,99866.64
2023-02-05T05:29:02.192Z,99867.67
2023-02-05T05:31:28.971Z,99870.86
2023-02-05T05:33:55.801Z,99873.42
2023-02-05T05:36:22.511Z,99872.67
2023-02-05T05:38:49.202Z,99874.67
2023-02-05T05:41:37.639Z,99877.65
2023-02-05T05:44:04.401Z,99875.17
2023-02-05T05:46:31.277Z,99877.64
2023-02-05T05:48:59.273Z,99877.67
2023-02-05T05:51:27.031Z,99883.70
2023-02-05T05:53:54.455Z,99889.34
2023-02-05T05:56:21.245Z,99891.87
2023-02-05T05:58:48.564Z,99894.16
2023-02-05T06:01:16.539Z,99893.67
2023-02-05T06:03:43.238Z,99902.39
2023-02-05T06:06:10.077Z,99902.15
2023-02-05T06:08:36.926Z,99899.95
2023-02-05T06:11:03.845Z,99903.89
2023-02-05T06:13:31.576Z,99904.05
2023-02-05T06:15:58.246Z,99908.33
2023-02-05T06:18:25.980Z,99910.89
2023-02-05T06:20:52.961Z,99913.63
2023-02-05T06:23:19.528Z,99912.43
2023-02-05T06:25:46.653Z,99914.39
2023-02-05T06:28:13.241Z,99918.53
2023-02-05T06:30:40.466Z,99924.38
2023-02-05T06:33:07.253Z,99927.02
2023-02-05T06:35:35.034Z,99930.76
2023-02-05T06:38:02.006Z,99932.60
2023-02-05T06:40:30.025Z,99932.73
2023-02-05T06:42:56.704Z,99933.17
2023-02-05T06:45:24.093Z,99933.09
2023-02-05T06:47:52.744Z,99936.81
2023-02-05T06:50:20.351Z,99937.10
2023-02-05T06:52:47.485Z,99938.92
2023-02-05T06:55:14.266Z,99942.28
2023-02-05T06:57:40.919Z,99938.60
2023-02-05T07:00:08.421Z,99945.20
2023-02-05T07:02:35.332Z,99943.84
2023-02-05T07:05:02.935Z,99946.49
2023-02-05T07:07:30.024Z,99942.64
2023-02-05T07:09:57.328Z,99941.69
2023-02-05T07:12:24.789Z,99946.59
2023-02-05T07:14:51.780Z,99952.17
2023-02-05T07:17:20.386Z,99957.29
2023-02-05T07:19:47.014Z,99958.41
2023-02-05T07:22:14.971Z,99956.00
2023-02-05T07:24:41.861Z,99959.31
2023-02-05T07:27:09.467Z,99959.98
2023-02-05T07:29:36.190Z,99967.66
2023-02-05T07:32:03.244Z,99969.48
2023-02-05T07:34:30.154Z,99965.98
2023-02-05T07:36:56.848Z,99959.62
2023-02-05T07:39:23.478Z,99960.09
2023-02-05T07:41:50.802Z,99955.20
2023-02-05T07:44:21.825Z,99955.64
2023-02-05T07:46:48.553Z,99954.86
2023-02-05T07:49:15.202Z,99955.92
2023-02-05T07:51:42.236Z,99954.17
2023-02-05T07:54:09.710Z,99958.84
2023-02-05T07:56:36.801Z,99961.45
2023-02-05T07:59:03.877Z,99966.29
2023-02-05T08:01:31.433Z,99968.17
2023-02-05T08:03:58.134Z,99971.16
2023-02-05T08:06:25.153Z,99973.98
2023-02-05T08:08:51.932Z,99976.39
2023-02-05T08:11:18.692Z,99976.60
2023-02-05T08:13:48.476Z,99980.54
2023-02-05T08:16:15.663Z,99979.98
2023-02-05T08:18:43.040Z,99983.16
2023-02-05T08:21:09.680Z,99985.43
2023-02-05T08:23:36.380Z,99987.03
2023-02-05T08:26:03.584Z,99992.07
2023-02-05T08:28:30.505Z,99998.09
2023-02-05T08:30:58.142Z,100003.41
2023-02-05T08:33:25.007Z,100000.70
2023-02-05T08:35:51.710Z,100006.84
2023-02-05T08:38:18.760Z,100006.55
2023-02-05T08:40:46.228Z,100010.84
2023-02-05T08:43:13.645Z,100006.03
2023-02-05T08:45:40.658Z,100011.88
2023-02-05T08:48:07.329Z,100012.43
2023-02-05T08:50:34.495Z,100014.43
2023-02-05T08:53:01.478Z,100012.08
2023-02-05T08:55:28.232Z,100013.64
2023-02-05T08:57:55.369Z,100011.46
2023-02-05T09:00:22.228Z,100017.46
2023-02-05T09:02:48.920Z,100023.38
2023-02-05T09:05:16.738Z,100021.46
2023-02-05T09:07:43.474Z,100016.45
2023-02-05T09:10:14.115Z,100021.39
2023-02-05T09:12:41.524Z,100021.09
2023-02-05T09:15:09.207Z,100017.52
2023-02-05T09:17:36.518Z,100023.27
2023-02-05T09:20:03.717Z,100025.33
2023-02-05T09:22:31.196Z,100027.63
2023-02-05T09:24:58.128Z,100021.90
2023-02-05T09:27:24.912Z,100021.23
2023-02-05T09:29:52.687Z,100022.30
2023-02-05T09:32:19.911Z,100015.95
2023-02-05T09:34:48.479Z,100012.48
2023-02-05T09:37:16.499Z,100012.06
2023-02-05T09:42:38.753Z,100003.88
2023-02-05T09:45:35.579Z,100012.73
2023-02-05T09:48:49.081Z,100012.29
2023-02-05T09:51:18.279Z,100012.70
2023-02-05T09:53:48.732Z,100012.94
2023-02-05T09:56:15.736Z,100011.21
2023-02-05T09:58:47.650Z,100007.64
2023-02-05T10:01:28.850Z,100010.03
2023-02-05T10:03:57.613Z,100013.29
2023-02-05T10:06:46.376Z,100014.96
2023-02-05T10:09:42.704Z,100017.48
2023-02-05T10:12:13.322Z,100017.56
2023-02-05T13:26:25.649Z,100132.30
2023-02-05T13:29:06.298Z,100140.35
2023-02-05T13:31:39.931Z,100140.92
2023-02-05T13:34:07.779Z,100142.81
2023-02-05T13:36:37.699Z,100147.88
2023-02-05T13:39:16.973Z,100147.04
2023-02-05T13:42:05.870Z,100147.65
2023-02-05T13:44:47.728Z,100151.08
2023-02-05T13:47:31.585Z,100149.88
2023-02-05T13:50:22.834Z,100151.52
2023-02-05T13:52:52.535Z,100146.20
2023-02-05T13:55:41.570Z,100152.08
2023-02-05T13:58:11.420Z,100155.52
2023-02-05T14:00:40.298Z,100159.06
2023-02-05T14:03:09.058Z,100162.76
2023-02-05T14:05:38.131Z,100166.09
2023-02-05T14:08:05.352Z,100168.88
2023-02-05T14:10:37.096Z,100174.77
2023-02-05T14:13:17.814Z,100175.05
2023-02-05T14:15:45.264Z,100175.73
2023-02-05T14:18:32.427Z,100177.37
2023-02-05T14:20:59.437Z,100175.19
2023-02-05T14:23:45.014Z,100181.34
2023-02-05T14:26:14.395Z,100185.36
2023-02-05T14:28:51.190Z,100187.13
2023-02-05T14:31:45.291Z,100189.29
2023-02-05T14:34:31.217Z,100191.04
2023-02-05T14:37:00.109Z,100190.84
2023-02-05T14:39:29.699Z,100190.52
2023-02-05T14:41:58.713Z,100195.15
2023-02-05T14:44:32.410Z,100205.18
2023-02-05T14:47:20.953Z,100204.36
2023-02-05T14:49:48.917Z,100199.20
2023-02-05T14:52:33.829Z,100206.80
2023-02-05T14:55:04.963Z,100211.41
2023-02-05T14:57:46.023Z,100210.05
2023-02-05T15:00:29.234Z,100214.19
2023-02-05T15:03:01.786Z,100212.83
2023-02-05T15:05:46.276Z,100216.87
2023-02-05T15:08:16.305Z,100218.87
2023-02-05T15:10:44.752Z,100220.52
2023-02-05T15:13:13.843Z,100217.14
2023-02-05T15:16:07.350Z,100224.52
2023-02-05T15:18:39.541Z,100226.75
2023-02-05T15:21:07.209Z,100226.15
2023-02-05T15:23:42.465Z,100233.71
2023-02-05T15:26:22.283Z,100241.15
2023-02-05T15:29:03.342Z,100241.95
2023-02-05T15:32:16.527Z,100249.15
2023-02-05T15:34:54.242Z,100248.66
2023-02-05T15:37:42.799Z,100246.77
2023-02-05T15:40:20.001Z,100249.52
2023-02-05T15:42:48.938Z,100250.98
2023-02-05T15:45:28.725Z,100252.41
2023-02-05T15:48:06.646Z,100258.48
2023-02-05T15:50:34.499Z,100258.61
2023-02-05T15:53:01.287Z,100262.73
2023-02-05T15:55:28.551Z,100264.34
2023-02-05T15:58:02.334Z,100270.73
2023-02-05T16:00:29.827Z,100266.70
2023-02-05T16:03:00.753Z,100275.65
2023-02-05T16:05:28.755Z,100275.66
2023-02-05T16:07:56.982Z,100277.66
2023-02-05T16:10:28.328Z,100281.19
2023-02-05T16:13:04.890Z,100283.48
2023-02-05T16:15:46.502Z,100288.52
2023-02-05T16:18:38.459Z,100290.51
2023-02-05T16:21:16.755Z,100296.21
2023-02-05T16:23:45.364Z,100293.56
2023-02-05T16:26:23.971Z,100297.73
2023-02-05T16:28:56.740Z,100305.71
2023-02-05T16:31:24.163Z,100306.92
2023-02-05T16:33:55.577Z,100316.05
2023-02-05T16:36:33.013Z,100325.42
2023-02-05T16:39:01.526Z,100322.94
2023-02-05T16:41:34.304Z,100325.27
2023-02-05T16:44:03.279Z,100321.22
2023-02-05T16:46:30.819Z,100322.32
2023-02-05T16:49:21.200Z,100319.34
2023-02-05T16:51:50.472Z,100329.41
2023-02-05T16:54:17.231Z,100332.44
2023-02-05T16:56:47.540Z,100335.42
2023-02-05T16:59:30.081Z,100340.45
2023-02-05T17:01:58.917Z,100346.23
2023-02-05T17:04:31.802Z,100343.73
2023-02-05T17:07:00.662Z,100348.98
2023-02-05T17:09:31.742Z,100353.88
2023-02-05T17:12:20.806Z,100349.04
2023-02-05T17:15:09.526Z,100353.54
2023-02-05T17:17:45.062Z,100358.15
2023-02-05T17:20:14.739Z,100358.30
2023-02-05T17:23:00.065Z,100360.23
2023-02-05T17:25:27.290Z,100364.30
2023-02-05T17:27:54.486Z,100370.36
2023-02-05T17:30:21.214Z,100374.44
2023-02-05T17:32:49.955Z,100382.96
2023-02-05T17:35:17.484Z,100384.86
2023-02-05T17:37:44.327Z,100383.20
2023-02-05T17:40:11.857Z,100386.27
2023-02-05T17:42:39.112Z,100383.91
2023-02-05T17:45:26.205Z,100386.07
2023-02-05T17:47:52.836Z,100382.34
2023-02-05T17:50:19.747Z,100388.14
2023-02-05T17:52:46.460Z,100388.95
2023-02-05T17:55:14.374Z,100390.98
2023-02-05T17:57:42.429Z,100391.86
2023-02-05T18:00:18.249Z,100392.77
2023-02-05T18:02:45.134Z,100396.98
2023-02-05T18:05:11.907Z,100398.20
2023-02-05T18:07:54.307Z,100395.07
2023-02-05T18:10:24.401Z,100406.87
2023-02-05T18:12:51.484Z,100406.27
2023-02-05T18:15:18.402Z,100416.37
2023-02-05T18:17:45.538Z,100417.73
2023-02-05T18:20:13.142Z,100422.55
2023-02-05T18:22:40.942Z,100423.49
2023-02-05T18:25:07.995Z,100427.25
2023-02-05T18:27:34.654Z,100432.17
2023-02-05T18:30:01.595Z,100435.55
2023-02-05T18:32:28.516Z,100433.21
2023-02-05T18:34:55.416Z,100432.48
2023-02-05T18:37:22.093Z,100436.73
2023-02-05T18:39:48.985Z,100436.07
2023-02-05T18:42:15.871Z,100438.52
2023-02-05T18:44:42.726Z,100440.50
2023-02-05T18:47:10.769Z,100441.02
2023-02-05T18:49:37.612Z,100442.95
2023-02-05T18:52:05.698Z,100444.77
2023-02-05T18:54:32.494Z,100442.11
2023-02-05T18:56:59.415Z,100440.52
2023-02-05T18:59:26.289Z,100442.08
2023-02-05T19:01:53.106Z,100448.21
2023-02-05T19:04:20.391Z,100450.70
2023-02-05T19:06:52.798Z,100457.63
2023-02-05T19:09:21.111Z,100463.10
2023-02-05T19:11:48.442Z,100463.44
2023-02-05T19:14:16.782Z,100467.41
2023-02-05T19:16:43.489Z,100466.86
2023-02-05T19:19:20.121Z,100468.24
2023-02-05T19:21:50.035Z,100473.75
2023-02-05T20:04:06.398Z,100515.14
2023-02-05T20:06:33.331Z,100517.95
2023-02-05T20:09:01.664Z,100517.64
2023-02-05T20:11:30.551Z,100519.66
2023-02-05T20:14:01.067Z,100523.06
2023-02-05T20:16:29.499Z,100520.44
2023-02-05T20:18:58.092Z,100525.11
2023-02-05T20:21:25.986Z,100526.37
2023-02-05T20:23:53.084Z,100525.44
2023-02-05T20:26:21.524Z,100526.54
2023-02-05T20:29:11.511Z,100529.90
2023-02-05T20:31:43.097Z,100532.86
2023-02-05T20:34:18.640Z,100536.65
2023-02-05T20:36:48.584Z,100541.67
2023-02-05T20:39:17.034Z,100543.83
2023-02-05T20:41:44.896Z,100543.79
2023-02-05T20:44:11.595Z,100543.98
2023-02-05T20:46:38.164Z,100549.13
2023-02-05T20:49:05.015Z,100551.48
2023-02-05T20:51:31.914Z,100552.89
2023-02-05T20:53:58.659Z,100557.30
2023-02-05T20:56:26.814Z,100556.52
2023-02-05T20:58:59.516Z,100563.05
2023-02-05T21:01:26.529Z,100567.13
2023-02-05T21:03:54.868Z,100570.39
2023-02-05T21:06:22.334Z,100570.73
2023-02-05T21:08:50.289Z,100580.34
2023-02-05T21:11:17.357Z,100581.23
2023-02-05T21:13:45.247Z,100588.70
2023-02-05T21:16:12.800Z,100589.36
2023-02-05T21:18:40.262Z,100590.73
2023-02-05T21:21:08.602Z,100591.26
2023-02-05T21:23:35.465Z,100594.13
2023-02-05T21:26:02.286Z,100591.09
2023-02-05T21:28:29.269Z,100597.42
2023-02-05T21:31:03.674Z,100597.34
2023-02-05T21:33:30.539Z,100598.88
2023-02-05T21:35:57.355Z,100601.58
2023-02-05T21:38:24.296Z,100606.15
2023-02-05T21:40:51.214Z,100606.02
2023-02-05T21:43:17.787Z,100608.65
2023-02-05T21:45:44.764Z,100610.11
2023-02-05T21:48:11.466Z,100612.58
2023-02-05T21:50:39.742Z,100609.86
2023-02-05T21:53:06.471Z,100612.67
2023-02-05T21:55:33.506Z,100616.95
2023-02-05T21:58:00.253Z,100622.11
2023-02-05T22:00:26.850Z,100626.38
2023-02-05T22:02:53.640Z,100623.95
2023-02-05T22:05:20.389Z,100632.77
2023-02-05T22:07:47.013Z,100627.94
2023-02-05T22:10:14.554Z,100631.01
2023-02-05T22:12:41.316Z,100631.92
2023-02-05T22:15:12.802Z,100631.26
2023-02-05T22:17:39.846Z,100628.81
2023-02-05T22:20:08.635Z,100627.38
2023-02-05T22:22:36.128Z,100626.97
2023-02-05T22:25:03.792Z,100624.32
2023-02-05T22:27:31.462Z,100629.29
2023-02-05T22:29:58.056Z,100630.45
2023-02-05T22:32:25.350Z,100635.04
2023-02-05T22:34:52.971Z,100639.69
2023-02-05T22:37:19.601Z,100639.84
2023-02-05T22:39:47.296Z,100640.33
2023-02-05T22:42:13.889Z,100646.20
2023-02-05T22:44:40.511Z,100641.48
2023-02-05T22:47:07.316Z,100652.85
2023-02-05T22:49:34.082Z,100653.73
2023-02-05T22:52:01.822Z,100653.08
2023-02-05T22:54:28.714Z,100654.02
2023-02-05T22:56:55.261Z,100655.72
2023-02-05T22:59:21.868Z,100656.30
2023-02-05T23:01:48.728Z,100657.97
2023-02-05T23:04:15.576Z,100655.42
2023-02-05T23:06:42.672Z,100661.42
2023-02-05T23:09:12.907Z,100661.25
2023-02-05T23:11:39.666Z,100659.38
2023-02-05T23:14:06.734Z,100665.45
2023-02-05T23:16:36.326Z,100669.09
2023-02-05T23:19:05.953Z,100673.23
2023-02-05T23:21:33.818Z,100676.98
2023-02-05T23:24:00.597Z,100678.95
2023-02-05T23:26:31.743Z,100681.42
2023-02-05T23:28:58.896Z,100684.00
2023-02-05T23:31:25.799Z,100686.37
2023-02-05T23:33:52.638Z,100685.82
2023-02-05T23:36:19.242Z,100688.08
2023-02-05T23:38:46.192Z,100684.11
2023-02-05T23:41:12.766Z,100688.24
2023-02-05T23:43:39.556Z,100686.84
2023-02-05T23:46:06.627Z,100694.35
2023-02-05T23:48:33.964Z,100692.66
2023-02-05T23:51:01.223Z,100691.17
2023-02-05T23:53:28.109Z,100693.26
2023-02-05T23:55:54.971Z,100690.74
2023-02-05T23:58:25.161Z,100696.00
